Time;durP1;ratioP1;P1;durP2;ratioP2;P2;SDS_P1;SDS_P2;PMS_P1;PMS_P2;Temp;Humidity;BMP_temperature;BMP_pressure;BME280_temperature;BME280_humidity;BME280_pressure;Samples;Min_cycle;Max_cycle;Signal;HPM_P1;HPM_P2
2022/04/11 00:00:15;;;;;;;;;;;;;;;13.55;37.27;100672.72;4422674;32;19960;-68
2022/04/11 00:02:40;;;;;;;;;;;;;;;13.45;37.49;100668.25;4421226;32;19957;-69
2022/04/11 00:05:06;;;;;;;;;;;;;;;13.46;37.60;100672.66;4426469;32;20433;-68
2022/04/11 00:07:31;;;;;;;;;;;;;;;13.40;37.84;100680.16;4422169;32;20373;-68
2022/04/11 00:09:58;;;;;;;;;;;;;;;13.41;37.89;100672.47;4420786;32;20010;-68
2022/04/11 00:12:23;;;;;;;;;;;;;;;13.33;38.26;100671.13;4424695;32;20357;-68
2022/04/11 00:14:49;;;;;;;;;;;;;;;13.42;38.42;100666.34;4423172;32;19982;-68
2022/04/11 00:17:15;;;;;;;;;;;;;;;13.48;38.51;100669.38;4423517;32;20407;-68
2022/04/11 00:19:40;;;;;;;;;;;;;;;13.46;38.87;100667.00;4424156;32;19957;-68
2022/04/11 00:22:06;;;;;;;;;;;;;;;13.43;39.06;100664.28;4422276;32;20033;-68
2022/04/11 00:24:32;;;;;;;;;;;;;;;13.38;39.36;100659.25;4423227;32;19953;-68
2022/04/11 00:26:57;;;;;;;;;;;;;;;13.37;39.49;100661.28;4424469;32;20308;-68
2022/04/11 00:29:22;;;;;;;;;;;;;;;13.35;39.80;100655.28;4425061;32;19953;-68
2022/04/11 00:31:48;;;;;;;;;;;;;;;13.16;40.19;100655.62;4421637;32;19954;-68
2022/04/11 00:34:14;;;;;;;;;;;;;;;13.42;39.87;100643.75;4421374;32;20000;-68
2022/04/11 00:36:40;;;;;;;;;;;;;;;13.48;39.79;100644.72;4422802;32;19992;-68
2022/04/11 00:39:05;;;;;;;;;;;;;;;13.43;39.72;100645.31;4420435;32;19959;-68
2022/04/11 00:41:31;;;;;;;;;;;;;;;13.50;39.81;100636.56;4421485;32;20357;-68
2022/04/11 00:43:58;;;;;;;;;;;;;;;13.49;39.83;100643.47;4422776;32;20261;-68
2022/04/11 00:46:23;;;;;;;;;;;;;;;13.15;40.57;100643.53;4420066;32;20261;-68
2022/04/11 00:48:49;;;;;;;;;;;;;;;13.05;40.97;100644.72;4422285;32;20344;-68
2022/04/11 00:51:19;;;;;;;;;;;;;;;13.01;41.10;100643.25;4422160;32;20140;-68
2022/04/11 00:53:45;;;;;;;;;;;;;;;13.11;40.85;100644.91;4419668;32;20352;-68
2022/04/11 00:56:12;;;;;;;;;;;;;;;13.42;40.21;100638.09;4424789;32;19962;-69
2022/04/11 00:58:38;;;;;;;;;;;;;;;13.31;40.65;100639.72;4425692;32;19953;-68
2022/04/11 01:01:05;;;;;;;;;;;;;;;13.40;40.50;100642.59;4419879;32;19989;-68
2022/04/11 01:03:31;;;;;;;;;;;;;;;13.37;40.71;100644.31;4424051;32;19949;-68
2022/04/11 01:05:57;;;;;;;;;;;;;;;13.35;40.77;100634.72;4426839;32;19997;-68
2022/04/11 01:08:24;;;;;;;;;;;;;;;13.35;40.76;100632.69;4423978;32;20008;-68
2022/04/11 01:10:50;;;;;;;;;;;;;;;13.27;40.97;100634.22;4423108;32;20330;-68
2022/04/11 01:13:18;;;;;;;;;;;;;;;13.22;41.13;100631.97;4419563;32;19977;-68
2022/04/11 01:16:00;;;;;;;;;;;;;;;12.90;41.99;100632.28;4423829;32;20022;-68
2022/04/11 01:18:26;;;;;;;;;;;;;;;12.80;42.26;100635.50;4423923;32;21103;-68
2022/04/11 01:20:52;;;;;;;;;;;;;;;12.63;42.90;100628.41;4422711;32;20462;-68
2022/04/11 01:23:20;;;;;;;;;;;;;;;12.85;42.31;100624.38;4422562;32;19957;-68
2022/04/11 01:25:49;;;;;;;;;;;;;;;12.70;42.88;100628.19;4421112;32;20251;-68
2022/04/11 01:28:15;;;;;;;;;;;;;;;12.61;42.89;100623.22;4425872;32;19949;-68
2022/04/11 01:30:40;;;;;;;;;;;;;;;12.31;43.73;100618.22;4423780;32;19991;-68
2022/04/11 01:33:14;;;;;;;;;;;;;;;12.40;43.97;100615.47;4420661;32;19953;-68
2022/04/11 01:35:39;;;;;;;;;;;;;;;12.41;43.87;100619.87;4421796;32;20028;-68
2022/04/11 01:38:05;;;;;;;;;;;;;;;12.35;43.79;100612.44;4424144;32;20511;-68
2022/04/11 01:40:31;;;;;;;;;;;;;;;12.39;43.51;100618.75;4424372;32;20472;-68
2022/04/11 01:42:56;;;;;;;;;;;;;;;12.22;43.56;100620.13;4424477;32;19961;-68
2022/04/11 01:45:22;;;;;;;;;;;;;;;11.95;44.36;100617.75;4424733;32;19962;-68
2022/04/11 01:47:48;;;;;;;;;;;;;;;12.57;42.66;100616.91;4424263;32;19953;-69
2022/04/11 01:50:13;;;;;;;;;;;;;;;11.79;44.67;100620.69;4425628;32;19989;-68
2022/04/11 01:52:39;;;;;;;;;;;;;;;11.64;45.12;100616.72;4425957;32;19976;-68
2022/04/11 01:55:04;;;;;;;;;;;;;;;11.79;44.70;100610.19;4427374;32;19999;-68
2022/04/11 01:57:30;;;;;;;;;;;;;;;11.66;45.14;100617.06;4426681;32;20000;-68
2022/04/11 01:59:56;;;;;;;;;;;;;;;11.46;45.92;100608.78;4424078;32;20023;-68
2022/04/11 02:02:22;;;;;;;;;;;;;;;11.42;46.22;100610.13;4427344;32;19994;-69
2022/04/11 02:04:48;;;;;;;;;;;;;;;11.52;46.02;100597.72;4430750;32;19945;-68
2022/04/11 02:07:14;;;;;;;;;;;;;;;11.50;45.78;100608.66;4416675;32;21112;-68
2022/04/11 02:09:39;;;;;;;;;;;;;;;11.58;45.12;100602.38;4422511;32;20336;-68
2022/04/11 02:12:05;;;;;;;;;;;;;;;11.63;44.72;100592.59;4425865;32;20406;-68
2022/04/11 02:14:31;;;;;;;;;;;;;;;11.73;44.19;100594.28;4425054;32;20013;-68
2022/04/11 02:16:57;;;;;;;;;;;;;;;11.73;44.02;100585.84;4421667;32;20359;-68
2022/04/11 02:19:22;;;;;;;;;;;;;;;12.63;42.16;100592.50;4422835;32;20469;-68
2022/04/11 02:21:48;;;;;;;;;;;;;;;11.91;43.49;100588.91;4425445;32;20351;-68
2022/04/11 02:24:14;;;;;;;;;;;;;;;11.90;43.57;100592.94;4424440;32;19992;-68
2022/04/11 02:26:40;;;;;;;;;;;;;;;11.89;43.61;100582.91;4420285;32;20349;-68
2022/04/11 02:29:05;;;;;;;;;;;;;;;11.89;43.51;100577.28;4424243;32;19949;-68
2022/04/11 02:31:31;;;;;;;;;;;;;;;11.89;43.50;100578.06;4423614;32;19961;-68
2022/04/11 02:33:56;;;;;;;;;;;;;;;11.86;43.45;100576.16;4425498;32;19979;-68
2022/04/11 02:36:22;;;;;;;;;;;;;;;11.88;43.54;100575.69;4425950;32;19976;-68
2022/04/11 02:38:48;;;;;;;;;;;;;;;11.84;43.42;100569.37;4422007;32;19958;-68
2022/04/11 02:41:13;;;;;;;;;;;;;;;11.83;43.46;100570.62;4423482;32;20041;-68
2022/04/11 02:43:40;;;;;;;;;;;;;;;11.75;43.73;100566.44;4424903;32;19967;-68
2022/04/11 02:46:05;;;;;;;;;;;;;;;11.85;43.62;100554.81;4425375;32;20411;-68
2022/04/11 02:48:30;;;;;;;;;;;;;;;11.76;44.01;100568.03;4425393;32;19949;-68
2022/04/11 02:50:56;;;;;;;;;;;;;;;11.81;44.00;100556.97;4419543;32;20024;-68
2022/04/11 02:53:22;;;;;;;;;;;;;;;11.82;44.24;100557.75;4425291;32;20382;-68
2022/04/11 02:55:47;;;;;;;;;;;;;;;11.86;44.53;100561.25;4410658;32;20288;-68
2022/04/11 02:58:15;;;;;;;;;;;;;;;11.92;44.56;100556.63;4425205;32;19945;-68
2022/04/11 03:00:41;;;;;;;;;;;;;;;11.84;45.03;100558.09;4425650;32;19985;-68
2022/04/11 03:03:10;;;;;;;;;;;;;;;11.79;45.16;100553.78;4422956;32;19957;-68
2022/04/11 03:05:37;;;;;;;;;;;;;;;11.79;45.03;100556.63;4423318;32;20007;-68
2022/04/11 03:08:02;;;;;;;;;;;;;;;11.69;45.79;100554.94;4427233;32;19950;-68
2022/04/11 03:10:28;;;;;;;;;;;;;;;11.83;45.04;100550.88;4424960;32;20003;-68
2022/04/11 03:12:53;;;;;;;;;;;;;;;11.88;45.12;100550.31;4425421;32;19956;-68
2022/04/11 03:15:19;;;;;;;;;;;;;;;11.84;44.86;100546.81;4421865;32;19997;-68
2022/04/11 03:17:44;;;;;;;;;;;;;;;11.84;44.66;100543.97;4420176;32;19996;-68
2022/04/11 03:20:10;;;;;;;;;;;;;;;11.76;44.32;100532.16;4425503;32;19953;-68
2022/04/11 03:22:36;;;;;;;;;;;;;;;11.87;44.32;100537.44;4420506;32;19968;-68
2022/04/11 03:25:01;;;;;;;;;;;;;;;11.84;44.33;100527.06;4425319;32;20322;-68
2022/04/11 03:27:27;;;;;;;;;;;;;;;11.89;44.09;100530.12;4421282;32;19972;-68
2022/04/11 03:29:54;;;;;;;;;;;;;;;11.84;44.02;100521.44;4421973;32;19950;-68
2022/04/11 03:32:20;;;;;;;;;;;;;;;11.65;44.50;100517.63;4425561;32;19952;-68
2022/04/11 03:34:45;;;;;;;;;;;;;;;11.50;45.05;100510.81;4426061;32;19994;-68
2022/04/11 03:37:12;;;;;;;;;;;;;;;11.43;45.46;100513.06;4427142;32;19945;-68
2022/04/11 03:39:38;;;;;;;;;;;;;;;12.19;44.90;100519.47;4422579;32;20376;-68
2022/04/11 03:42:04;;;;;;;;;;;;;;;13.35;41.48;100516.03;4423821;32;20020;-69
2022/04/11 03:44:29;;;;;;;;;;;;;;;13.48;41.13;100525.19;4423122;32;20260;-69
2022/04/11 03:46:56;;;;;;;;;;;;;;;13.41;41.32;100511.34;4422572;32;19961;-69
2022/04/11 03:49:22;;;;;;;;;;;;;;;11.89;44.28;100503.94;4422114;32;19957;-69
2022/04/11 03:51:47;;;;;;;;;;;;;;;11.35;45.93;100506.09;4421121;32;19949;-69
2022/04/11 03:54:13;;;;;;;;;;;;;;;11.21;46.28;100514.97;4426005;32;19962;-69
2022/04/11 03:56:41;;;;;;;;;;;;;;;11.13;46.60;100505.13;4422732;32;19954;-69
2022/04/11 03:59:06;;;;;;;;;;;;;;;11.10;46.47;100506.03;4422166;32;20410;-69
2022/04/11 04:01:32;;;;;;;;;;;;;;;11.13;46.32;100507.94;4422089;32;19962;-69
2022/04/11 04:03:58;;;;;;;;;;;;;;;11.12;46.20;100512.00;4418637;32;19989;-69
2022/04/11 04:06:23;;;;;;;;;;;;;;;11.09;46.09;100508.06;4423364;32;20017;-69
2022/04/11 04:08:49;;;;;;;;;;;;;;;11.08;46.19;100502.88;4422790;32;20300;-69
2022/04/11 04:11:14;;;;;;;;;;;;;;;11.04;46.48;100507.81;4420736;32;20004;-69
2022/04/11 04:13:50;;;;;;;;;;;;;;;11.00;46.44;100501.50;4417538;32;19990;-69
2022/04/11 04:16:19;;;;;;;;;;;;;;;10.72;47.01;100502.34;4416659;32;19991;-69
2022/04/11 04:18:44;;;;;;;;;;;;;;;10.75;47.11;100498.63;4419318;32;20012;-69
2022/04/11 04:21:10;;;;;;;;;;;;;;;10.66;47.35;100499.28;4421489;32;20012;-69
2022/04/11 04:23:36;;;;;;;;;;;;;;;10.54;47.61;100493.59;4423257;32;20025;-69
2022/04/11 04:26:02;;;;;;;;;;;;;;;10.88;46.84;100496.62;4416465;32;19992;-69
2022/04/11 04:28:27;;;;;;;;;;;;;;;10.66;47.30;100498.47;4424229;32;20321;-68
2022/04/11 04:30:53;;;;;;;;;;;;;;;10.60;47.58;100494.63;4421482;32;20024;-68
2022/04/11 04:33:18;;;;;;;;;;;;;;;10.57;47.57;100482.25;4420153;32;20006;-69
2022/04/11 04:35:44;;;;;;;;;;;;;;;10.34;48.20;100492.97;4415391;32;19989;-69
2022/04/11 04:38:10;;;;;;;;;;;;;;;10.34;48.26;100487.34;4413159;32;19978;-69
2022/04/11 04:40:35;;;;;;;;;;;;;;;10.30;48.37;100486.62;4423561;32;20383;-69
2022/04/11 04:43:00;;;;;;;;;;;;;;;10.15;48.80;100485.44;4421922;32;20735;-69
2022/04/11 04:45:26;;;;;;;;;;;;;;;10.18;48.85;100485.34;4418474;32;19990;-69
2022/04/11 04:47:51;;;;;;;;;;;;;;;10.14;48.90;100473.41;4418168;32;19997;-69
2022/04/11 04:50:17;;;;;;;;;;;;;;;10.07;49.10;100485.59;4425301;32;20009;-69
2022/04/11 04:52:42;;;;;;;;;;;;;;;10.03;49.29;100490.50;4417319;32;19953;-69
2022/04/11 04:55:08;;;;;;;;;;;;;;;11.32;46.60;100487.28;4415989;32;19996;-69
2022/04/11 04:57:34;;;;;;;;;;;;;;;10.16;48.81;100485.00;4423934;32;20001;-69
2022/04/11 05:00:00;;;;;;;;;;;;;;;9.98;49.20;100488.22;4418433;32;19950;-69
2022/04/11 05:02:25;;;;;;;;;;;;;;;9.76;50.10;100486.41;4419478;32;20423;-69
2022/04/11 05:04:51;;;;;;;;;;;;;;;9.79;50.11;100488.34;4423164;32;19997;-69
2022/04/11 05:07:16;;;;;;;;;;;;;;;9.76;50.10;100487.19;4417906;32;19989;-69
2022/04/11 05:09:42;;;;;;;;;;;;;;;9.71;50.06;100490.53;4423122;32;19997;-69
2022/04/11 05:12:08;;;;;;;;;;;;;;;9.73;50.61;100490.09;4421590;32;20303;-69
2022/04/11 05:14:33;;;;;;;;;;;;;;;9.75;50.19;100488.41;4421966;32;20019;-69
2022/04/11 05:16:59;;;;;;;;;;;;;;;9.78;50.27;100483.94;4420732;32;19989;-69
2022/04/11 05:19:24;;;;;;;;;;;;;;;9.79;50.44;100486.31;4424042;32;20008;-69
2022/04/11 05:21:50;;;;;;;;;;;;;;;9.84;50.34;100487.78;4423801;32;20036;-69
2022/04/11 05:24:15;;;;;;;;;;;;;;;9.84;50.28;100487.78;4423276;32;20260;-69
2022/04/11 05:26:41;;;;;;;;;;;;;;;9.82;50.28;100487.47;4423487;32;20368;-69
2022/04/11 05:29:07;;;;;;;;;;;;;;;9.85;50.14;100484.53;4425866;32;20012;-69
2022/04/11 05:31:33;;;;;;;;;;;;;;;9.86;50.04;100477.72;4422901;32;19965;-69
2022/04/11 05:34:00;;;;;;;;;;;;;;;9.89;50.06;100473.22;4421360;32;20008;-69
2022/04/11 05:36:25;;;;;;;;;;;;;;;10.00;49.59;100474.53;4424623;32;19993;-69
2022/04/11 05:38:51;;;;;;;;;;;;;;;10.04;49.22;100469.59;4426217;32;20351;-69
2022/04/11 05:41:16;;;;;;;;;;;;;;;9.91;50.08;100467.94;4424801;32;19997;-69
2022/04/11 05:43:41;;;;;;;;;;;;;;;11.15;47.49;100464.03;4410147;32;20301;-69
2022/04/11 05:46:08;;;;;;;;;;;;;;;11.92;44.95;100461.56;4426130;32;19987;-69
2022/04/11 05:48:34;;;;;;;;;;;;;;;10.67;47.32;100449.41;4424210;32;20351;-69
2022/04/11 05:51:00;;;;;;;;;;;;;;;10.12;49.04;100456.16;4424954;32;19958;-69
2022/04/11 05:53:26;;;;;;;;;;;;;;;10.06;49.41;100450.31;4421135;32;19972;-69
2022/04/11 05:55:52;;;;;;;;;;;;;;;10.06;49.31;100449.47;4420464;32;19958;-71
2022/04/11 05:58:17;;;;;;;;;;;;;;;10.10;49.18;100450.22;4425657;32;19994;-69
2022/04/11 06:00:42;;;;;;;;;;;;;;;10.59;47.58;100448.84;4422827;32;19950;-69
2022/04/11 06:03:09;;;;;;;;;;;;;;;11.85;45.15;100450.50;4423783;32;19949;-69
2022/04/11 06:05:36;;;;;;;;;;;;;;;12.16;44.14;100442.19;4423824;32;20381;-69
2022/04/11 06:08:01;;;;;;;;;;;;;;;12.31;43.82;100457.37;4425330;32;20004;-69
2022/04/11 06:10:27;;;;;;;;;;;;;;;11.19;46.04;100456.25;4420031;32;19949;-69
2022/04/11 06:12:54;;;;;;;;;;;;;;;10.26;48.67;100457.81;4422444;32;19965;-69
2022/04/11 06:15:19;;;;;;;;;;;;;;;10.24;49.00;100455.44;4425973;32;20668;-69
2022/04/11 06:17:45;;;;;;;;;;;;;;;10.26;49.09;100453.00;4422043;32;19953;-69
2022/04/11 06:20:11;;;;;;;;;;;;;;;10.32;48.92;100456.03;4423852;32;19954;-69
2022/04/11 06:22:40;;;;;;;;;;;;;;;10.29;49.39;100449.28;4421724;32;19961;-69
2022/04/11 06:25:05;;;;;;;;;;;;;;;10.33;49.18;100443.53;4419203;32;20040;-68
2022/04/11 06:27:32;;;;;;;;;;;;;;;10.38;49.22;100428.94;4421779;32;19962;-68
2022/04/11 06:29:58;;;;;;;;;;;;;;;10.37;49.38;100439.41;4427326;32;19994;-68
2022/04/11 06:32:25;;;;;;;;;;;;;;;10.45;49.41;100432.34;4420681;32;20468;-68
2022/04/11 06:34:50;;;;;;;;;;;;;;;10.59;48.96;100437.59;4424503;32;20000;-69
2022/04/11 06:37:16;;;;;;;;;;;;;;;11.22;47.53;100438.47;4422971;32;19988;-68
2022/04/11 06:39:42;;;;;;;;;;;;;;;11.19;47.70;100432.94;4417696;32;19988;-69
2022/04/11 06:42:09;;;;;;;;;;;;;;;11.30;47.61;100430.59;4424102;32;20276;-68
2022/04/11 06:44:37;;;;;;;;;;;;;;;11.11;47.70;100429.53;4422598;32;19988;-69
2022/04/11 06:47:03;;;;;;;;;;;;;;;11.48;47.53;100427.97;4421598;32;19965;-69
2022/04/11 06:49:29;;;;;;;;;;;;;;;11.51;47.42;100422.22;4416972;32;20623;-69
2022/04/11 06:51:55;;;;;;;;;;;;;;;11.71;47.19;100419.97;4422844;32;20033;-69
2022/04/11 06:54:20;;;;;;;;;;;;;;;11.90;46.74;100423.75;4420256;32;20900;-69
2022/04/11 06:56:46;;;;;;;;;;;;;;;11.75;47.08;100420.63;4419539;32;19949;-69
2022/04/11 06:59:11;;;;;;;;;;;;;;;11.93;46.92;100418.00;4424337;32;19945;-69
2022/04/11 07:01:37;;;;;;;;;;;;;;;12.18;46.30;100417.09;4424782;32;19988;-69
2022/04/11 07:04:03;;;;;;;;;;;;;;;12.10;46.50;100421.44;4408861;32;19957;-69
2022/04/11 07:06:28;;;;;;;;;;;;;;;12.19;46.12;100415.88;4425071;32;20070;-69
2022/04/11 07:08:55;;;;;;;;;;;;;;;11.66;47.25;100414.91;4418505;32;19996;-69
2022/04/11 07:11:20;;;;;;;;;;;;;;;11.83;47.13;100415.53;4417247;32;19969;-69
2022/04/11 07:13:46;;;;;;;;;;;;;;;12.30;46.48;100424.75;4416576;32;19953;-69
2022/04/11 07:16:11;;;;;;;;;;;;;;;11.69;47.20;100421.69;4420150;32;20005;-69
2022/04/11 07:18:37;;;;;;;;;;;;;;;11.91;46.46;100422.53;4420807;32;19957;-69
2022/04/11 07:21:02;;;;;;;;;;;;;;;11.51;47.87;100416.56;4422695;32;20376;-69
2022/04/11 07:23:28;;;;;;;;;;;;;;;11.46;48.42;100425.62;4423381;32;19988;-69
2022/04/11 07:25:53;;;;;;;;;;;;;;;11.26;49.09;100419.41;4422984;32;20345;-69
2022/04/11 07:28:19;;;;;;;;;;;;;;;11.67;48.11;100412.88;4422076;32;20005;-70
2022/04/11 07:30:45;;;;;;;;;;;;;;;11.44;48.77;100413.19;4419266;32;20367;-69
2022/04/11 07:33:11;;;;;;;;;;;;;;;11.64;48.54;100420.22;4424990;32;20001;-69
2022/04/11 07:35:36;;;;;;;;;;;;;;;11.73;48.37;100420.28;4405532;32;19973;-69
2022/04/11 07:38:02;;;;;;;;;;;;;;;11.67;48.48;100413.69;4418794;32;19969;-69
2022/04/11 07:40:28;;;;;;;;;;;;;;;11.88;48.41;100415.75;4422279;32;20302;-69
2022/04/11 07:42:54;;;;;;;;;;;;;;;11.79;48.36;100412.06;4419897;32;19990;-69
2022/04/11 07:45:20;;;;;;;;;;;;;;;11.62;49.16;100411.41;4408519;32;19969;-69
2022/04/11 07:47:46;;;;;;;;;;;;;;;11.66;48.74;100408.50;4419486;32;19975;-69
2022/04/11 07:50:11;;;;;;;;;;;;;;;11.78;48.88;100410.47;4418682;32;19993;-69
2022/04/11 07:52:37;;;;;;;;;;;;;;;11.78;48.84;100407.66;4417816;32;19972;-69
2022/04/11 07:55:04;;;;;;;;;;;;;;;11.97;48.58;100406.59;4421256;32;20048;-69
2022/04/11 07:57:30;;;;;;;;;;;;;;;12.16;48.38;100394.22;4423995;32;19993;-69
2022/04/11 07:59:56;;;;;;;;;;;;;;;12.43;47.82;100393.66;4421952;32;19976;-69
2022/04/11 08:02:24;;;;;;;;;;;;;;;12.60;47.20;100392.19;4421854;32;20162;-69
2022/04/11 08:04:50;;;;;;;;;;;;;;;12.68;46.94;100397.13;4421607;32;20228;-69
2022/04/11 08:07:15;;;;;;;;;;;;;;;12.92;46.43;100386.88;4420759;32;20738;-69
2022/04/11 08:09:41;;;;;;;;;;;;;;;13.19;46.09;100391.94;4403411;32;20330;-69
2022/04/11 08:12:07;;;;;;;;;;;;;;;13.35;44.99;100391.66;4412904;32;20347;-69
2022/04/11 08:14:32;;;;;;;;;;;;;;;13.47;44.54;100385.87;4404168;32;20256;-69
2022/04/11 08:17:02;;;;;;;;;;;;;;;13.77;44.17;100393.50;4419005;32;20314;-69
2022/04/11 08:19:30;;;;;;;;;;;;;;;15.65;40.07;100393.63;4415456;32;20016;-69
2022/04/11 08:21:56;;;;;;;;;;;;;;;14.95;40.76;100393.47;4415427;32;19958;-69
2022/04/11 08:24:22;;;;;;;;;;;;;;;14.46;41.79;100388.06;4415565;32;19981;-69
2022/04/11 08:26:48;;;;;;;;;;;;;;;14.38;42.29;100383.97;4415800;32;20011;-69
2022/04/11 08:29:13;;;;;;;;;;;;;;;14.22;42.93;100378.59;4415046;32;20737;-69
2022/04/11 08:31:40;;;;;;;;;;;;;;;14.64;42.22;100381.56;4411827;32;19997;-69
2022/04/11 08:34:06;;;;;;;;;;;;;;;15.30;41.16;100372.69;4413685;32;19995;-69
2022/04/11 08:36:31;;;;;;;;;;;;;;;15.74;39.71;100385.06;4416946;32;19972;-69
2022/04/11 08:38:58;;;;;;;;;;;;;;;15.92;39.07;100379.28;4415871;32;19985;-70
2022/04/11 08:41:25;;;;;;;;;;;;;;;16.17;38.39;100380.03;4400037;32;19953;-69
2022/04/11 08:43:52;;;;;;;;;;;;;;;16.18;38.16;100393.75;4413884;32;19961;-69
2022/04/11 08:46:19;;;;;;;;;;;;;;;16.26;38.00;100377.91;4413577;32;20419;-69
2022/04/11 08:48:45;;;;;;;;;;;;;;;16.58;37.65;100385.53;4416978;32;20412;-70
2022/04/11 08:51:11;;;;;;;;;;;;;;;16.93;37.01;100382.78;4415067;32;19998;-69
2022/04/11 08:53:37;;;;;;;;;;;;;;;16.99;36.66;100381.62;4411505;32;20406;-69
2022/04/11 08:56:03;;;;;;;;;;;;;;;16.79;37.20;100380.75;4415892;32;20425;-69
2022/04/11 08:58:28;;;;;;;;;;;;;;;16.90;36.88;100373.19;4416969;32;19953;-69
2022/04/11 09:00:54;;;;;;;;;;;;;;;17.18;36.50;100373.66;4414015;32;19984;-69
2022/04/11 09:03:19;;;;;;;;;;;;;;;17.56;36.08;100365.75;4414527;32;19957;-69
2022/04/11 09:06:02;;;;;;;;;;;;;;;17.94;35.35;100369.63;4416594;32;20009;-69
2022/04/11 09:08:47;;;;;;;;;;;;;;;17.98;35.18;100365.25;4413546;32;20411;-70
2022/04/11 09:11:25;;;;;;;;;;;;;;;18.21;34.75;100364.25;4414907;32;19953;-70
2022/04/11 09:13:52;;;;;;;;;;;;;;;17.67;35.93;100359.41;4414638;32;19984;-69
2022/04/11 09:16:18;;;;;;;;;;;;;;;17.51;35.74;100375.00;4415381;32;19962;-70
2022/04/11 09:18:45;;;;;;;;;;;;;;;17.34;35.84;100364.59;4414922;32;20446;-69
2022/04/11 09:21:11;;;;;;;;;;;;;;;17.17;36.16;100367.19;4401317;32;19969;-69
2022/04/11 09:23:36;;;;;;;;;;;;;;;17.35;35.57;100372.66;4412052;32;20376;-69
2022/04/11 09:26:19;;;;;;;;;;;;;;;17.30;35.65;100375.38;4413857;32;20013;-69
2022/04/11 09:28:57;;;;;;;;;;;;;;;17.48;35.49;100353.22;4414326;32;19953;-69
2022/04/11 09:31:23;;;;;;;;;;;;;;;17.68;34.90;100347.53;4415349;32;19953;-69
2022/04/11 09:33:49;;;;;;;;;;;;;;;17.62;34.99;100346.66;4413935;32;20412;-69
2022/04/11 09:36:16;;;;;;;;;;;;;;;17.52;35.21;100333.09;4414097;32;20361;-70
2022/04/11 09:38:41;;;;;;;;;;;;;;;17.61;35.25;100335.78;4416265;32;20046;-69
2022/04/11 09:41:07;;;;;;;;;;;;;;;17.83;34.81;100328.34;4412837;32;20318;-69
2022/04/11 09:43:33;;;;;;;;;;;;;;;17.87;34.54;100326.06;4406676;32;20306;-69
2022/04/11 09:46:01;;;;;;;;;;;;;;;17.91;34.43;100317.31;4417324;32;20305;-70
2022/04/11 09:48:28;;;;;;;;;;;;;;;18.06;34.47;100305.81;4412959;32;20682;-69
2022/04/11 09:50:54;;;;;;;;;;;;;;;17.92;34.14;100322.50;4417021;32;20019;-69
2022/04/11 09:53:21;;;;;;;;;;;;;;;18.22;33.81;100313.78;4410550;32;20344;-70
2022/04/11 09:55:47;;;;;;;;;;;;;;;18.17;33.63;100318.16;4415611;32;20305;-69
2022/04/11 09:58:14;;;;;;;;;;;;;;;18.08;33.78;100314.66;4414381;32;19962;-69
2022/04/11 10:00:41;;;;;;;;;;;;;;;17.98;33.79;100310.41;4416836;32;19996;-69
2022/04/11 10:03:07;;;;;;;;;;;;;;;18.07;33.77;100296.78;4414860;32;19980;-69
2022/04/11 10:05:34;;;;;;;;;;;;;;;18.02;33.43;100291.81;4418064;32;20693;-69
2022/04/11 10:08:00;;;;;;;;;;;;;;;18.30;33.13;100294.97;4419362;32;19967;-69
2022/04/11 10:10:25;;;;;;;;;;;;;;;18.69;32.59;100296.16;4416351;32;19989;-69
2022/04/11 10:12:53;;;;;;;;;;;;;;;18.47;32.88;100288.16;4415155;32;20131;-69
2022/04/11 10:15:21;;;;;;;;;;;;;;;18.50;32.75;100304.25;4416599;32;19958;-69
2022/04/11 10:17:47;;;;;;;;;;;;;;;18.77;32.36;100297.22;4414539;32;19999;-69
2022/04/11 10:20:12;;;;;;;;;;;;;;;18.89;31.86;100290.34;4419269;32;20002;-70
2022/04/11 10:22:43;;;;;;;;;;;;;;;18.77;31.81;100297.22;4416346;32;20000;-70
2022/04/11 10:25:14;;;;;;;;;;;;;;;18.96;31.74;100284.19;4416769;32;20030;-69
2022/04/11 10:27:40;;;;;;;;;;;;;;;19.06;31.70;100277.00;4418540;32;19991;-70
2022/04/11 10:30:25;;;;;;;;;;;;;;;18.93;32.03;100277.41;4415784;32;20009;-70
2022/04/11 10:32:53;;;;;;;;;;;;;;;19.05;31.59;100276.22;4415241;32;19958;-69
2022/04/11 10:35:31;;;;;;;;;;;;;;;19.09;31.52;100267.44;4416827;32;19981;-69
2022/04/11 10:40:34;;;;;;;;;;;;;;;20.44;30.45;100252.69;3949954;32;15775497;-70
2022/04/11 10:45:36;;;;;;;;;;;;;;;20.71;29.43;100254.75;3951219;32;15725560;-70
2022/04/11 10:48:02;;;;;;;;;;;;;;;20.71;29.43;100254.75;4430439;32;20044;-70
2022/04/11 10:50:36;;;;;;;;;;;;;;;20.43;29.54;100258.94;4432271;32;19957;-70
2022/04/11 10:53:25;;;;;;;;;;;;;;;19.91;30.30;100244.22;4431801;32;20366;-70
2022/04/11 10:56:07;;;;;;;;;;;;;;;20.25;30.06;100251.63;4433334;32;20039;-70
2022/04/11 10:58:49;;;;;;;;;;;;;;;20.84;29.53;100231.38;4429914;32;20001;-70
2022/04/11 11:01:15;;;;;;;;;;;;;;;20.76;28.55;100236.03;4426913;32;19996;-70
2022/04/11 11:03:57;;;;;;;;;;;;;;;20.85;28.89;100232.91;4429321;32;20502;-70
2022/04/11 11:06:22;;;;;;;;;;;;;;;20.94;28.61;100227.75;4432808;32;19945;-71
2022/04/11 11:08:48;;;;;;;;;;;;;;;21.40;28.00;100229.97;4427703;32;20509;-70
2022/04/11 11:13:54;;;;;;;;;;;;;;;23.58;25.32;100240.87;3950265;32;15722596;-70
2022/04/11 11:24:10;;;;;;;;;;;;;;;22.37;26.12;100212.00;3950826;32;15722626;-70
2022/04/11 11:29:16;;;;;;;;;;;;;;;20.89;27.72;100211.34;3952140;32;15725421;-70
2022/04/11 11:31:42;;;;;;;;;;;;;;;20.89;27.72;100211.34;4434005;32;19969;-70
2022/04/11 11:34:16;;;;;;;;;;;;;;;20.47;28.32;100199.41;4434098;32;20069;-70
2022/04/11 11:36:42;;;;;;;;;;;;;;;20.83;27.59;100204.84;4424626;32;20010;-70
2022/04/11 11:41:47;;;;;;;;;;;;;;;22.82;25.28;100196.00;3949330;32;15722376;-70
2022/04/11 11:44:13;;;;;;;;;;;;;;;22.82;25.28;100196.00;4430459;32;19945;-70
2022/04/11 11:49:21;;;;;;;;;;;;;;;23.77;24.28;100202.25;3952849;32;15730368;-70
2022/04/11 11:51:47;;;;;;;;;;;;;;;23.77;24.28;100202.25;4433677;32;19980;-70
2022/04/11 11:54:14;;;;;;;;;;;;;;;23.37;24.46;100192.56;4436091;32;20002;-70
2022/04/11 11:56:43;;;;;;;;;;;;;;;23.86;24.26;100187.50;4439257;32;20407;-70
2022/04/11 11:59:10;;;;;;;;;;;;;;;23.86;23.98;100181.75;4431256;32;19992;-70
2022/04/11 12:01:37;;;;;;;;;;;;;;;24.22;23.30;100188.03;4437058;32;20010;-70
2022/04/11 12:04:34;;;;;;;;;;;;;;;23.92;22.67;100170.94;4440284;32;19973;-70
2022/04/11 12:06:52;;;;;;;;;;;;;;;23.65;22.61;100160.59;4438615;32;19971;-70
2022/04/11 12:09:19;;;;;;;;;;;;;;;22.98;24.02;100162.72;4437434;32;20045;-70
2022/04/11 12:11:44;;;;;;;;;;;;;;;23.29;24.10;100144.91;4440122;32;20373;-70
2022/04/11 12:14:10;;;;;;;;;;;;;;;23.21;23.79;100147.59;4440564;32;19953;-70
2022/04/11 12:16:36;;;;;;;;;;;;;;;23.44;23.49;100120.16;4439424;32;19984;-70
2022/04/11 12:19:03;;;;;;;;;;;;;;;23.46;23.76;100134.75;4435622;32;20082;-70
2022/04/11 12:21:31;;;;;;;;;;;;;;;23.67;23.03;100129.25;4436097;32;20107;-70
2022/04/11 12:23:57;;;;;;;;;;;;;;;22.13;24.63;100128.84;4438051;32;20399;-70
2022/04/11 12:26:42;;;;;;;;;;;;;;;22.35;24.72;100114.31;4436819;32;20094;-70
2022/04/11 12:29:10;;;;;;;;;;;;;;;22.53;24.56;100115.72;4437160;32;20344;-70
2022/04/11 12:31:37;;;;;;;;;;;;;;;22.79;24.96;100111.00;4435586;32;20020;-70
2022/04/11 12:34:11;;;;;;;;;;;;;;;23.08;24.57;100100.78;4435055;32;20001;-70
2022/04/11 12:36:36;;;;;;;;;;;;;;;23.92;23.79;100101.97;4437501;32;20403;-70
2022/04/11 12:39:17;;;;;;;;;;;;;;;22.97;24.66;100100.91;4438458;32;19953;-70
2022/04/11 12:41:44;;;;;;;;;;;;;;;22.86;24.76;100106.78;4435849;32;20373;-70
2022/04/11 12:44:11;;;;;;;;;;;;;;;22.96;25.01;100107.97;4433829;32;20009;-70
2022/04/11 12:46:37;;;;;;;;;;;;;;;23.15;24.81;100109.56;4437334;32;19953;-70
2022/04/11 12:49:04;;;;;;;;;;;;;;;23.34;24.44;100106.72;4437657;32;20025;-70
2022/04/11 12:51:30;;;;;;;;;;;;;;;23.10;24.58;100106.75;4436683;32;19967;-70
2022/04/11 12:54:13;;;;;;;;;;;;;;;23.31;24.42;100094.25;4435829;32;19977;-70
2022/04/11 12:56:46;;;;;;;;;;;;;;;24.21;23.63;100103.09;4440640;32;20791;-70